sensor_id;sensor_type;location;lat;lon;timestamp;P1;durP1;ratioP1;P2;durP2;ratioP2
16153;SDS011;8182;55.648;13.208;2023-07-13T00:00:10;6.40;;;2.20;;
16153;SDS011;8182;55.648;13.208;2023-07-13T00:02:40;5.10;;;1.93;;
16153;SDS011;8182;55.648;13.208;2023-07-13T00:05:08;7.27;;;2.17;;
16153;SDS011;8182;55.648;13.208;2023-07-13T00:07:35;6.17;;;2.00;;
16153;SDS011;8182;55.648;13.208;2023-07-13T00:10:03;7.00;;;2.20;;
16153;SDS011;8182;55.648;13.208;2023-07-13T00:12:34;8.13;;;2.20;;
16153;SDS011;8182;55.648;13.208;2023-07-13T00:15:05;6.40;;;2.27;;
16153;SDS011;8182;55.648;13.208;2023-07-13T00:17:35;4.70;;;2.23;;
16153;SDS011;8182;55.648;13.208;2023-07-13T00:20:03;5.23;;;2.10;;
16153;SDS011;8182;55.648;13.208;2023-07-13T00:22:32;7.93;;;2.50;;
16153;SDS011;8182;55.648;13.208;2023-07-13T00:25:00;4.70;;;2.50;;
16153;SDS011;8182;55.648;13.208;2023-07-13T00:27:27;4.13;;;2.30;;
16153;SDS011;8182;55.648;13.208;2023-07-13T00:29:58;7.27;;;2.70;;
16153;SDS011;8182;55.648;13.208;2023-07-13T00:32:25;6.03;;;2.50;;
16153;SDS011;8182;55.648;13.208;2023-07-13T00:34:52;4.57;;;2.20;;
16153;SDS011;8182;55.648;13.208;2023-07-13T00:37:19;6.40;;;2.50;;
16153;SDS011;8182;55.648;13.208;2023-07-13T00:39:46;4.67;;;2.40;;
16153;SDS011;8182;55.648;13.208;2023-07-13T00:42:13;6.47;;;2.37;;
16153;SDS011;8182;55.648;13.208;2023-07-13T00:44:40;4.20;;;2.40;;
16153;SDS011;8182;55.648;13.208;2023-07-13T00:47:09;5.10;;;2.20;;
16153;SDS011;8182;55.648;13.208;2023-07-13T00:49:36;6.07;;;2.30;;
16153;SDS011;8182;55.648;13.208;2023-07-13T00:52:04;6.23;;;2.40;;
16153;SDS011;8182;55.648;13.208;2023-07-13T00:54:35;6.37;;;2.67;;
16153;SDS011;8182;55.648;13.208;2023-07-13T00:57:06;9.03;;;2.50;;
16153;SDS011;8182;55.648;13.208;2023-07-13T00:59:36;5.27;;;2.40;;
16153;SDS011;8182;55.648;13.208;2023-07-13T01:02:09;8.10;;;2.53;;
16153;SDS011;8182;55.648;13.208;2023-07-13T01:04:37;5.53;;;2.40;;
16153;SDS011;8182;55.648;13.208;2023-07-13T01:07:04;5.70;;;3.00;;
16153;SDS011;8182;55.648;13.208;2023-07-13T01:09:33;6.43;;;2.70;;
16153;SDS011;8182;55.648;13.208;2023-07-13T01:12:00;8.53;;;3.03;;
16153;SDS011;8182;55.648;13.208;2023-07-13T01:14:27;8.43;;;3.63;;
16153;SDS011;8182;55.648;13.208;2023-07-13T01:16:54;6.80;;;4.03;;
16153;SDS011;8182;55.648;13.208;2023-07-13T01:19:29;13.00;;;5.27;;
16153;SDS011;8182;55.648;13.208;2023-07-13T01:22:04;15.77;;;7.17;;
16153;SDS011;8182;55.648;13.208;2023-07-13T01:24:33;15.80;;;8.33;;
16153;SDS011;8182;55.648;13.208;2023-07-13T01:27:01;12.63;;;7.13;;
16153;SDS011;8182;55.648;13.208;2023-07-13T01:29:28;13.83;;;7.20;;
16153;SDS011;8182;55.648;13.208;2023-07-13T01:31:56;11.90;;;7.00;;
16153;SDS011;8182;55.648;13.208;2023-07-13T01:34:23;10.03;;;6.17;;
16153;SDS011;8182;55.648;13.208;2023-07-13T01:36:50;12.17;;;5.83;;
16153;SDS011;8182;55.648;13.208;2023-07-13T01:39:20;12.13;;;5.20;;
16153;SDS011;8182;55.648;13.208;2023-07-13T01:41:47;8.80;;;4.47;;
16153;SDS011;8182;55.648;13.208;2023-07-13T01:44:14;5.93;;;3.30;;
16153;SDS011;8182;55.648;13.208;2023-07-13T01:46:41;7.30;;;3.77;;
16153;SDS011;8182;55.648;13.208;2023-07-13T01:49:08;6.33;;;3.00;;
16153;SDS011;8182;55.648;13.208;2023-07-13T01:51:35;5.80;;;2.70;;
16153;SDS011;8182;55.648;13.208;2023-07-13T01:54:02;5.63;;;2.80;;
16153;SDS011;8182;55.648;13.208;2023-07-13T01:56:31;5.67;;;2.60;;
16153;SDS011;8182;55.648;13.208;2023-07-13T01:58:58;5.23;;;2.50;;
16153;SDS011;8182;55.648;13.208;2023-07-13T02:01:25;5.70;;;2.53;;
16153;SDS011;8182;55.648;13.208;2023-07-13T02:03:52;9.57;;;2.60;;
16153;SDS011;8182;55.648;13.208;2023-07-13T02:06:19;4.23;;;2.30;;
16153;SDS011;8182;55.648;13.208;2023-07-13T02:08:46;5.67;;;2.63;;
16153;SDS011;8182;55.648;13.208;2023-07-13T02:11:13;6.07;;;2.57;;
16153;SDS011;8182;55.648;13.208;2023-07-13T02:13:42;6.27;;;2.73;;
16153;SDS011;8182;55.648;13.208;2023-07-13T02:16:09;5.57;;;2.40;;
16153;SDS011;8182;55.648;13.208;2023-07-13T02:18:36;6.77;;;2.53;;
16153;SDS011;8182;55.648;13.208;2023-07-13T02:21:03;7.13;;;2.87;;
16153;SDS011;8182;55.648;13.208;2023-07-13T02:23:30;5.50;;;2.60;;
16153;SDS011;8182;55.648;13.208;2023-07-13T02:25:57;5.13;;;2.50;;
16153;SDS011;8182;55.648;13.208;2023-07-13T02:28:25;8.03;;;2.90;;
16153;SDS011;8182;55.648;13.208;2023-07-13T02:30:54;4.70;;;2.53;;
16153;SDS011;8182;55.648;13.208;2023-07-13T02:33:21;7.23;;;2.60;;
16153;SDS011;8182;55.648;13.208;2023-07-13T02:35:48;5.27;;;2.60;;
16153;SDS011;8182;55.648;13.208;2023-07-13T02:38:15;6.33;;;2.67;;
16153;SDS011;8182;55.648;13.208;2023-07-13T02:40:42;11.13;;;2.63;;
16153;SDS011;8182;55.648;13.208;2023-07-13T02:43:09;6.93;;;2.90;;
16153;SDS011;8182;55.648;13.208;2023-07-13T02:45:36;6.40;;;2.60;;
16153;SDS011;8182;55.648;13.208;2023-07-13T02:48:06;6.77;;;2.80;;
16153;SDS011;8182;55.648;13.208;2023-07-13T02:50:32;7.73;;;2.97;;
16153;SDS011;8182;55.648;13.208;2023-07-13T02:53:00;6.00;;;2.50;;
16153;SDS011;8182;55.648;13.208;2023-07-13T02:55:27;6.10;;;2.70;;
16153;SDS011;8182;55.648;13.208;2023-07-13T02:57:54;4.67;;;2.80;;
16153;SDS011;8182;55.648;13.208;2023-07-13T03:00:21;5.07;;;2.40;;
16153;SDS011;8182;55.648;13.208;2023-07-13T03:02:48;4.77;;;2.60;;
16153;SDS011;8182;55.648;13.208;2023-07-13T03:05:16;7.10;;;3.10;;
16153;SDS011;8182;55.648;13.208;2023-07-13T03:07:43;5.10;;;2.63;;
16153;SDS011;8182;55.648;13.208;2023-07-13T03:10:11;5.47;;;2.73;;
16153;SDS011;8182;55.648;13.208;2023-07-13T03:12:37;5.17;;;2.63;;
16153;SDS011;8182;55.648;13.208;2023-07-13T03:15:05;7.23;;;2.63;;
16153;SDS011;8182;55.648;13.208;2023-07-13T03:17:32;5.07;;;2.87;;
16153;SDS011;8182;55.648;13.208;2023-07-13T03:19:59;4.63;;;2.53;;
16153;SDS011;8182;55.648;13.208;2023-07-13T03:22:28;6.13;;;2.47;;
16153;SDS011;8182;55.648;13.208;2023-07-13T03:24:56;6.10;;;2.90;;
16153;SDS011;8182;55.648;13.208;2023-07-13T03:27:23;4.20;;;2.30;;
16153;SDS011;8182;55.648;13.208;2023-07-13T03:29:50;5.37;;;2.37;;
16153;SDS011;8182;55.648;13.208;2023-07-13T03:32:17;4.10;;;2.67;;
16153;SDS011;8182;55.648;13.208;2023-07-13T03:34:44;5.30;;;2.63;;
16153;SDS011;8182;55.648;13.208;2023-07-13T03:37:11;4.53;;;2.70;;
16153;SDS011;8182;55.648;13.208;2023-07-13T03:39:40;5.73;;;2.73;;
16153;SDS011;8182;55.648;13.208;2023-07-13T03:42:07;4.03;;;2.40;;
16153;SDS011;8182;55.648;13.208;2023-07-13T03:44:34;4.73;;;2.60;;
16153;SDS011;8182;55.648;13.208;2023-07-13T03:47:01;7.17;;;2.80;;
16153;SDS011;8182;55.648;13.208;2023-07-13T03:49:28;11.83;;;3.30;;
16153;SDS011;8182;55.648;13.208;2023-07-13T03:51:55;6.73;;;2.70;;
16153;SDS011;8182;55.648;13.208;2023-07-13T03:54:22;5.50;;;3.20;;
16153;SDS011;8182;55.648;13.208;2023-07-13T03:56:50;7.87;;;3.20;;
16153;SDS011;8182;55.648;13.208;2023-07-13T03:59:18;5.57;;;3.10;;
16153;SDS011;8182;55.648;13.208;2023-07-13T04:01:45;5.17;;;3.20;;
16153;SDS011;8182;55.648;13.208;2023-07-13T04:04:12;7.50;;;3.27;;
16153;SDS011;8182;55.648;13.208;2023-07-13T04:06:39;4.33;;;3.00;;
16153;SDS011;8182;55.648;13.208;2023-07-13T04:09:06;8.47;;;3.40;;
16153;SDS011;8182;55.648;13.208;2023-07-13T04:11:34;7.03;;;3.40;;
16153;SDS011;8182;55.648;13.208;2023-07-13T04:14:04;5.87;;;3.37;;
16153;SDS011;8182;55.648;13.208;2023-07-13T04:16:31;7.23;;;3.30;;
16153;SDS011;8182;55.648;13.208;2023-07-13T04:18:58;7.10;;;3.10;;
16153;SDS011;8182;55.648;13.208;2023-07-13T04:21:25;10.53;;;3.60;;
16153;SDS011;8182;55.648;13.208;2023-07-13T04:23:53;9.30;;;3.63;;
16153;SDS011;8182;55.648;13.208;2023-07-13T04:26:20;7.40;;;4.00;;
16153;SDS011;8182;55.648;13.208;2023-07-13T04:28:47;6.50;;;4.10;;
16153;SDS011;8182;55.648;13.208;2023-07-13T04:31:16;9.17;;;4.30;;
16153;SDS011;8182;55.648;13.208;2023-07-13T04:33:43;8.60;;;3.77;;
16153;SDS011;8182;55.648;13.208;2023-07-13T04:36:10;8.37;;;4.30;;
16153;SDS011;8182;55.648;13.208;2023-07-13T04:38:37;7.73;;;4.47;;
16153;SDS011;8182;55.648;13.208;2023-07-13T04:41:05;6.40;;;4.20;;
16153;SDS011;8182;55.648;13.208;2023-07-13T04:43:34;9.03;;;4.10;;
16153;SDS011;8182;55.648;13.208;2023-07-13T04:46:04;11.73;;;3.83;;
16153;SDS011;8182;55.648;13.208;2023-07-13T04:48:33;8.13;;;3.60;;
16153;SDS011;8182;55.648;13.208;2023-07-13T04:51:00;9.93;;;4.03;;
16153;SDS011;8182;55.648;13.208;2023-07-13T04:53:29;8.50;;;3.80;;
16153;SDS011;8182;55.648;13.208;2023-07-13T04:55:57;10.37;;;4.30;;
16153;SDS011;8182;55.648;13.208;2023-07-13T04:58:24;10.50;;;3.83;;
16153;SDS011;8182;55.648;13.208;2023-07-13T05:00:52;8.33;;;3.87;;
16153;SDS011;8182;55.648;13.208;2023-07-13T05:03:19;10.80;;;4.30;;
16153;SDS011;8182;55.648;13.208;2023-07-13T05:05:55;11.93;;;4.07;;
16153;SDS011;8182;55.648;13.208;2023-07-13T05:08:23;8.73;;;3.73;;
16153;SDS011;8182;55.648;13.208;2023-07-13T05:10:50;11.13;;;3.60;;
16153;SDS011;8182;55.648;13.208;2023-07-13T05:13:17;9.73;;;3.73;;
16153;SDS011;8182;55.648;13.208;2023-07-13T05:15:44;8.53;;;3.77;;
16153;SDS011;8182;55.648;13.208;2023-07-13T05:18:11;6.27;;;3.13;;
16153;SDS011;8182;55.648;13.208;2023-07-13T05:20:38;8.97;;;3.90;;
16153;SDS011;8182;55.648;13.208;2023-07-13T05:23:07;7.63;;;3.53;;
16153;SDS011;8182;55.648;13.208;2023-07-13T05:25:34;13.20;;;4.13;;
16153;SDS011;8182;55.648;13.208;2023-07-13T05:28:01;11.43;;;3.80;;
16153;SDS011;8182;55.648;13.208;2023-07-13T05:30:28;11.60;;;3.47;;
16153;SDS011;8182;55.648;13.208;2023-07-13T05:32:55;9.30;;;3.40;;
16153;SDS011;8182;55.648;13.208;2023-07-13T05:35:21;6.27;;;3.30;;
16153;SDS011;8182;55.648;13.208;2023-07-13T05:37:48;8.67;;;3.10;;
16153;SDS011;8182;55.648;13.208;2023-07-13T05:40:16;7.47;;;3.57;;
16153;SDS011;8182;55.648;13.208;2023-07-13T05:42:43;4.83;;;2.80;;
16153;SDS011;8182;55.648;13.208;2023-07-13T05:45:10;9.17;;;3.13;;
16153;SDS011;8182;55.648;13.208;2023-07-13T05:47:37;6.53;;;2.90;;
16153;SDS011;8182;55.648;13.208;2023-07-13T05:50:05;6.37;;;2.83;;
16153;SDS011;8182;55.648;13.208;2023-07-13T05:52:33;8.53;;;3.00;;
16153;SDS011;8182;55.648;13.208;2023-07-13T05:54:59;9.70;;;3.03;;
16153;SDS011;8182;55.648;13.208;2023-07-13T05:57:28;7.47;;;2.70;;
16153;SDS011;8182;55.648;13.208;2023-07-13T05:59:56;6.27;;;2.93;;
16153;SDS011;8182;55.648;13.208;2023-07-13T06:02:23;7.47;;;2.93;;
16153;SDS011;8182;55.648;13.208;2023-07-13T06:04:50;6.77;;;2.70;;
16153;SDS011;8182;55.648;13.208;2023-07-13T06:07:17;6.20;;;2.67;;
16153;SDS011;8182;55.648;13.208;2023-07-13T06:09:44;8.03;;;2.90;;
16153;SDS011;8182;55.648;13.208;2023-07-13T06:12:11;6.80;;;2.67;;
16153;SDS011;8182;55.648;13.208;2023-07-13T06:14:40;6.93;;;3.10;;
16153;SDS011;8182;55.648;13.208;2023-07-13T06:17:07;8.37;;;3.40;;
16153;SDS011;8182;55.648;13.208;2023-07-13T06:19:34;10.00;;;3.37;;
16153;SDS011;8182;55.648;13.208;2023-07-13T06:22:01;6.30;;;2.57;;
16153;SDS011;8182;55.648;13.208;2023-07-13T06:24:28;8.83;;;2.67;;
16153;SDS011;8182;55.648;13.208;2023-07-13T06:26:55;6.93;;;2.93;;
16153;SDS011;8182;55.648;13.208;2023-07-13T06:29:22;9.03;;;2.67;;
16153;SDS011;8182;55.648;13.208;2023-07-13T06:31:51;9.57;;;2.80;;
16153;SDS011;8182;55.648;13.208;2023-07-13T06:34:18;6.73;;;2.83;;
16153;SDS011;8182;55.648;13.208;2023-07-13T06:36:51;4.73;;;2.40;;
16153;SDS011;8182;55.648;13.208;2023-07-13T06:39:18;8.20;;;2.50;;
16153;SDS011;8182;55.648;13.208;2023-07-13T06:41:45;4.33;;;2.60;;
16153;SDS011;8182;55.648;13.208;2023-07-13T06:44:12;7.73;;;2.33;;
16153;SDS011;8182;55.648;13.208;2023-07-13T06:46:39;9.40;;;2.60;;
16153;SDS011;8182;55.648;13.208;2023-07-13T06:49:07;5.50;;;2.77;;
16153;SDS011;8182;55.648;13.208;2023-07-13T06:51:34;7.33;;;2.60;;
16153;SDS011;8182;55.648;13.208;2023-07-13T06:54:01;9.90;;;2.60;;
16153;SDS011;8182;55.648;13.208;2023-07-13T06:56:29;5.07;;;1.90;;
16153;SDS011;8182;55.648;13.208;2023-07-13T06:58:56;5.63;;;2.20;;
16153;SDS011;8182;55.648;13.208;2023-07-13T07:01:23;8.53;;;2.93;;
16153;SDS011;8182;55.648;13.208;2023-07-13T07:03:50;7.27;;;2.47;;
16153;SDS011;8182;55.648;13.208;2023-07-13T07:06:19;5.57;;;2.10;;
16153;SDS011;8182;55.648;13.208;2023-07-13T07:08:48;5.00;;;2.23;;
16153;SDS011;8182;55.648;13.208;2023-07-13T07:11:17;4.47;;;2.30;;
16153;SDS011;8182;55.648;13.208;2023-07-13T07:13:47;5.63;;;2.20;;
16153;SDS011;8182;55.648;13.208;2023-07-13T07:16:14;6.60;;;2.43;;
16153;SDS011;8182;55.648;13.208;2023-07-13T07:18:41;4.03;;;2.30;;
16153;SDS011;8182;55.648;13.208;2023-07-13T07:21:08;7.17;;;2.23;;
16153;SDS011;8182;55.648;13.208;2023-07-13T07:23:36;3.97;;;2.30;;
16153;SDS011;8182;55.648;13.208;2023-07-13T07:26:03;7.00;;;2.20;;
16153;SDS011;8182;55.648;13.208;2023-07-13T07:28:30;4.53;;;2.17;;
16153;SDS011;8182;55.648;13.208;2023-07-13T07:30:58;6.33;;;2.57;;
16153;SDS011;8182;55.648;13.208;2023-07-13T07:33:25;6.30;;;2.30;;
16153;SDS011;8182;55.648;13.208;2023-07-13T07:35:52;7.60;;;2.53;;
16153;SDS011;8182;55.648;13.208;2023-07-13T07:38:19;9.77;;;2.70;;
16153;SDS011;8182;55.648;13.208;2023-07-13T07:40:48;6.43;;;2.60;;
16153;SDS011;8182;55.648;13.208;2023-07-13T07:43:15;5.37;;;2.30;;
16153;SDS011;8182;55.648;13.208;2023-07-13T07:45:43;6.40;;;2.70;;
16153;SDS011;8182;55.648;13.208;2023-07-13T07:48:11;4.43;;;2.50;;
16153;SDS011;8182;55.648;13.208;2023-07-13T07:50:38;7.43;;;2.27;;
16153;SDS011;8182;55.648;13.208;2023-07-13T07:53:05;6.83;;;2.50;;
16153;SDS011;8182;55.648;13.208;2023-07-13T07:55:35;5.20;;;2.07;;
16153;SDS011;8182;55.648;13.208;2023-07-13T07:58:04;7.30;;;2.67;;
16153;SDS011;8182;55.648;13.208;2023-07-13T08:00:31;7.20;;;2.47;;
16153;SDS011;8182;55.648;13.208;2023-07-13T08:03:00;7.10;;;2.37;;
16153;SDS011;8182;55.648;13.208;2023-07-13T08:05:28;6.47;;;2.13;;
16153;SDS011;8182;55.648;13.208;2023-07-13T08:07:55;5.30;;;2.30;;
16153;SDS011;8182;55.648;13.208;2023-07-13T08:10:22;4.00;;;2.10;;
16153;SDS011;8182;55.648;13.208;2023-07-13T08:12:49;8.10;;;2.23;;
16153;SDS011;8182;55.648;13.208;2023-07-13T08:15:18;4.50;;;2.07;;
16153;SDS011;8182;55.648;13.208;2023-07-13T08:17:46;7.50;;;2.10;;
16153;SDS011;8182;55.648;13.208;2023-07-13T08:20:14;4.83;;;2.17;;
16153;SDS011;8182;55.648;13.208;2023-07-13T08:22:41;5.27;;;2.40;;
16153;SDS011;8182;55.648;13.208;2023-07-13T08:25:08;8.03;;;2.13;;
16153;SDS011;8182;55.648;13.208;2023-07-13T08:27:35;4.13;;;2.10;;
16153;SDS011;8182;55.648;13.208;2023-07-13T08:30:02;5.43;;;2.10;;
16153;SDS011;8182;55.648;13.208;2023-07-13T08:32:35;5.17;;;2.10;;
16153;SDS011;8182;55.648;13.208;2023-07-13T08:35:04;7.03;;;2.10;;
16153;SDS011;8182;55.648;13.208;2023-07-13T08:37:31;5.93;;;2.03;;
16153;SDS011;8182;55.648;13.208;2023-07-13T08:39:58;3.73;;;2.03;;
16153;SDS011;8182;55.648;13.208;2023-07-13T08:45:13;4.83;;;1.80;;
16153;SDS011;8182;55.648;13.208;2023-07-13T08:47:47;4.10;;;1.87;;
16153;SDS011;8182;55.648;13.208;2023-07-13T08:50:19;6.40;;;2.03;;
16153;SDS011;8182;55.648;13.208;2023-07-13T08:52:51;4.37;;;1.30;;
16153;SDS011;8182;55.648;13.208;2023-07-13T08:55:21;3.03;;;1.37;;
16153;SDS011;8182;55.648;13.208;2023-07-13T08:57:56;6.43;;;1.70;;
16153;SDS011;8182;55.648;13.208;2023-07-13T09:00:33;7.27;;;1.70;;
16153;SDS011;8182;55.648;13.208;2023-07-13T09:03:07;4.87;;;1.70;;
16153;SDS011;8182;55.648;13.208;2023-07-13T09:05:43;14.67;;;2.43;;
16153;SDS011;8182;55.648;13.208;2023-07-13T09:08:24;5.73;;;2.23;;
16153;SDS011;8182;55.648;13.208;2023-07-13T09:11:00;7.80;;;2.20;;
16153;SDS011;8182;55.648;13.208;2023-07-13T09:13:39;8.20;;;1.90;;
16153;SDS011;8182;55.648;13.208;2023-07-13T09:16:14;9.00;;;2.20;;
16153;SDS011;8182;55.648;13.208;2023-07-13T09:18:44;5.47;;;1.93;;
16153;SDS011;8182;55.648;13.208;2023-07-13T09:21:15;5.33;;;2.30;;
16153;SDS011;8182;55.648;13.208;2023-07-13T09:23:44;4.70;;;2.37;;
16153;SDS011;8182;55.648;13.208;2023-07-13T09:26:14;4.23;;;2.30;;
16153;SDS011;8182;55.648;13.208;2023-07-13T09:28:45;5.70;;;2.67;;
16153;SDS011;8182;55.648;13.208;2023-07-13T09:31:15;4.73;;;2.30;;
16153;SDS011;8182;55.648;13.208;2023-07-13T09:33:48;4.13;;;2.10;;
16153;SDS011;8182;55.648;13.208;2023-07-13T09:36:19;6.60;;;2.40;;
16153;SDS011;8182;55.648;13.208;2023-07-13T09:38:48;8.03;;;2.13;;
16153;SDS011;8182;55.648;13.208;2023-07-13T09:41:23;4.60;;;1.50;;
16153;SDS011;8182;55.648;13.208;2023-07-13T09:46:46;2.10;;;1.30;;
16153;SDS011;8182;55.648;13.208;2023-07-13T09:49:22;4.97;;;1.40;;
16153;SDS011;8182;55.648;13.208;2023-07-13T09:51:51;2.50;;;1.40;;
16153;SDS011;8182;55.648;13.208;2023-07-13T09:54:24;4.97;;;1.67;;
16153;SDS011;8182;55.648;13.208;2023-07-13T09:56:55;4.03;;;1.60;;
16153;SDS011;8182;55.648;13.208;2023-07-13T09:59:23;3.37;;;1.63;;
16153;SDS011;8182;55.648;13.208;2023-07-13T10:01:53;3.03;;;1.50;;
16153;SDS011;8182;55.648;13.208;2023-07-13T10:04:25;4.20;;;1.77;;
16153;SDS011;8182;55.648;13.208;2023-07-13T10:07:03;6.43;;;1.97;;
16153;SDS011;8182;55.648;13.208;2023-07-13T10:09:32;6.00;;;1.80;;
16153;SDS011;8182;55.648;13.208;2023-07-13T10:11:59;3.80;;;1.80;;
16153;SDS011;8182;55.648;13.208;2023-07-13T10:14:26;4.13;;;1.80;;
16153;SDS011;8182;55.648;13.208;2023-07-13T10:16:57;4.20;;;1.60;;
16153;SDS011;8182;55.648;13.208;2023-07-13T10:19:29;5.27;;;1.50;;
16153;SDS011;8182;55.648;13.208;2023-07-13T10:22:01;3.57;;;1.30;;
16153;SDS011;8182;55.648;13.208;2023-07-13T10:24:36;3.60;;;1.40;;
16153;SDS011;8182;55.648;13.208;2023-07-13T10:27:09;3.57;;;1.40;;
16153;SDS011;8182;55.648;13.208;2023-07-13T10:29:42;3.83;;;1.67;;
16153;SDS011;8182;55.648;13.208;2023-07-13T10:32:12;6.40;;;1.57;;
16153;SDS011;8182;55.648;13.208;2023-07-13T10:34:41;3.83;;;1.80;;
16153;SDS011;8182;55.648;13.208;2023-07-13T10:37:15;3.77;;;1.60;;
16153;SDS011;8182;55.648;13.208;2023-07-13T10:39:45;5.37;;;2.03;;
16153;SDS011;8182;55.648;13.208;2023-07-13T10:42:15;5.67;;;1.90;;
16153;SDS011;8182;55.648;13.208;2023-07-13T10:44:48;3.57;;;1.73;;
16153;SDS011;8182;55.648;13.208;2023-07-13T10:47:15;3.57;;;1.60;;
16153;SDS011;8182;55.648;13.208;2023-07-13T10:49:44;6.63;;;2.00;;
16153;SDS011;8182;55.648;13.208;2023-07-13T10:57:59;6.97;;;2.47;;
16153;SDS011;8182;55.648;13.208;2023-07-13T11:00:30;5.93;;;2.37;;
16153;SDS011;8182;55.648;13.208;2023-07-13T11:02:59;5.73;;;2.70;;
16153;SDS011;8182;55.648;13.208;2023-07-13T11:05:30;5.30;;;2.60;;
16153;SDS011;8182;55.648;13.208;2023-07-13T11:08:04;6.93;;;2.67;;
16153;SDS011;8182;55.648;13.208;2023-07-13T11:10:46;6.43;;;2.63;;
16153;SDS011;8182;55.648;13.208;2023-07-13T11:16:36;5.27;;;2.40;;
16153;SDS011;8182;55.648;13.208;2023-07-13T11:19:23;5.50;;;2.30;;
16153;SDS011;8182;55.648;13.208;2023-07-13T11:22:09;5.00;;;1.80;;
16153;SDS011;8182;55.648;13.208;2023-07-13T11:27:50;4.90;;;1.50;;
16153;SDS011;8182;55.648;13.208;2023-07-13T11:30:25;2.43;;;1.23;;
16153;SDS011;8182;55.648;13.208;2023-07-13T11:33:04;2.63;;;1.10;;
16153;SDS011;8182;55.648;13.208;2023-07-13T11:35:41;3.10;;;1.37;;
16153;SDS011;8182;55.648;13.208;2023-07-13T11:38:15;1.83;;;1.20;;
16153;SDS011;8182;55.648;13.208;2023-07-13T11:40:44;3.40;;;1.20;;
16153;SDS011;8182;55.648;13.208;2023-07-13T11:43:13;2.70;;;1.13;;
16153;SDS011;8182;55.648;13.208;2023-07-13T11:45:41;2.37;;;1.00;;
16153;SDS011;8182;55.648;13.208;2023-07-13T11:48:18;2.73;;;1.10;;
16153;SDS011;8182;55.648;13.208;2023-07-13T11:50:55;3.07;;;1.33;;
16153;SDS011;8182;55.648;13.208;2023-07-13T11:53:27;2.37;;;1.10;;
16153;SDS011;8182;55.648;13.208;2023-07-13T11:55:55;1.93;;;1.10;;
16153;SDS011;8182;55.648;13.208;2023-07-13T11:58:24;2.00;;;1.20;;
16153;SDS011;8182;55.648;13.208;2023-07-13T12:00:53;2.37;;;1.03;;
16153;SDS011;8182;55.648;13.208;2023-07-13T12:03:24;3.17;;;1.27;;
16153;SDS011;8182;55.648;13.208;2023-07-13T12:05:56;1.83;;;1.10;;
16153;SDS011;8182;55.648;13.208;2023-07-13T12:08:28;1.87;;;1.10;;
16153;SDS011;8182;55.648;13.208;2023-07-13T12:10:57;1.77;;;1.03;;
16153;SDS011;8182;55.648;13.208;2023-07-13T12:13:26;1.40;;;0.90;;
16153;SDS011;8182;55.648;13.208;2023-07-13T12:15:54;1.07;;;0.97;;
16153;SDS011;8182;55.648;13.208;2023-07-13T12:18:28;3.97;;;1.20;;
16153;SDS011;8182;55.648;13.208;2023-07-13T12:20:57;2.23;;;1.03;;
16153;SDS011;8182;55.648;13.208;2023-07-13T12:23:25;1.93;;;1.00;;
16153;SDS011;8182;55.648;13.208;2023-07-13T12:25:58;2.03;;;1.03;;
16153;SDS011;8182;55.648;13.208;2023-07-13T12:28:31;1.93;;;1.10;;
16153;SDS011;8182;55.648;13.208;2023-07-13T12:31:01;4.10;;;0.90;;
16153;SDS011;8182;55.648;13.208;2023-07-13T12:33:29;1.70;;;0.93;;
16153;SDS011;8182;55.648;13.208;2023-07-13T12:35:58;2.07;;;1.10;;
16153;SDS011;8182;55.648;13.208;2023-07-13T12:38:28;1.50;;;1.00;;
16153;SDS011;8182;55.648;13.208;2023-07-13T12:40:58;2.53;;;1.00;;
16153;SDS011;8182;55.648;13.208;2023-07-13T12:43:28;3.97;;;1.43;;
16153;SDS011;8182;55.648;13.208;2023-07-13T12:46:02;2.13;;;1.00;;
16153;SDS011;8182;55.648;13.208;2023-07-13T12:48:37;2.10;;;0.90;;
16153;SDS011;8182;55.648;13.208;2023-07-13T12:51:08;1.40;;;0.90;;
16153;SDS011;8182;55.648;13.208;2023-07-13T12:53:40;1.90;;;1.00;;
16153;SDS011;8182;55.648;13.208;2023-07-13T12:56:11;3.00;;;1.00;;
16153;SDS011;8182;55.648;13.208;2023-07-13T12:58:46;1.20;;;1.10;;
16153;SDS011;8182;55.648;13.208;2023-07-13T13:01:19;2.27;;;1.10;;
16153;SDS011;8182;55.648;13.208;2023-07-13T13:03:48;3.50;;;1.20;;
16153;SDS011;8182;55.648;13.208;2023-07-13T13:06:21;2.93;;;1.20;;
16153;SDS011;8182;55.648;13.208;2023-07-13T13:08:53;2.83;;;1.10;;
16153;SDS011;8182;55.648;13.208;2023-07-13T13:11:23;3.60;;;1.23;;
16153;SDS011;8182;55.648;13.208;2023-07-13T13:13:51;2.80;;;1.07;;
16153;SDS011;8182;55.648;13.208;2023-07-13T13:16:20;3.60;;;1.20;;
16153;SDS011;8182;55.648;13.208;2023-07-13T13:18:50;2.77;;;1.23;;
16153;SDS011;8182;55.648;13.208;2023-07-13T13:21:18;3.13;;;1.50;;
16153;SDS011;8182;55.648;13.208;2023-07-13T13:23:45;3.40;;;1.30;;
16153;SDS011;8182;55.648;13.208;2023-07-13T13:26:14;3.63;;;1.40;;
16153;SDS011;8182;55.648;13.208;2023-07-13T13:28:42;3.10;;;1.10;;
16153;SDS011;8182;55.648;13.208;2023-07-13T13:31:10;3.30;;;1.33;;
16153;SDS011;8182;55.648;13.208;2023-07-13T13:33:38;4.53;;;1.40;;
16153;SDS011;8182;55.648;13.208;2023-07-13T13:36:11;4.47;;;1.60;;
16153;SDS011;8182;55.648;13.208;2023-07-13T13:38:44;2.80;;;1.50;;
16153;SDS011;8182;55.648;13.208;2023-07-13T13:41:11;2.83;;;1.40;;
16153;SDS011;8182;55.648;13.208;2023-07-13T13:43:41;6.10;;;1.60;;
16153;SDS011;8182;55.648;13.208;2023-07-13T13:46:12;5.13;;;1.60;;
16153;SDS011;8182;55.648;13.208;2023-07-13T13:48:41;2.93;;;1.30;;
16153;SDS011;8182;55.648;13.208;2023-07-13T13:51:13;3.00;;;1.40;;
16153;SDS011;8182;55.648;13.208;2023-07-13T13:53:42;4.13;;;1.50;;
16153;SDS011;8182;55.648;13.208;2023-07-13T13:56:09;2.17;;;1.10;;
16153;SDS011;8182;55.648;13.208;2023-07-13T13:58:37;4.03;;;1.33;;
16153;SDS011;8182;55.648;13.208;2023-07-13T14:01:05;3.20;;;1.20;;
16153;SDS011;8182;55.648;13.208;2023-07-13T14:03:39;1.90;;;1.30;;
16153;SDS011;8182;55.648;13.208;2023-07-13T14:06:07;1.83;;;1.30;;
16153;SDS011;8182;55.648;13.208;2023-07-13T14:08:37;2.83;;;1.27;;
16153;SDS011;8182;55.648;13.208;2023-07-13T14:11:04;2.43;;;1.23;;
16153;SDS011;8182;55.648;13.208;2023-07-13T14:13:32;4.10;;;1.23;;
16153;SDS011;8182;55.648;13.208;2023-07-13T14:16:08;1.90;;;1.10;;
16153;SDS011;8182;55.648;13.208;2023-07-13T14:18:37;2.77;;;1.10;;
16153;SDS011;8182;55.648;13.208;2023-07-13T14:21:08;4.10;;;1.20;;
16153;SDS011;8182;55.648;13.208;2023-07-13T14:23:38;3.17;;;1.33;;
16153;SDS011;8182;55.648;13.208;2023-07-13T14:26:08;6.50;;;1.63;;
16153;SDS011;8182;55.648;13.208;2023-07-13T14:28:37;3.43;;;1.47;;
16153;SDS011;8182;55.648;13.208;2023-07-13T14:31:08;2.47;;;1.33;;
16153;SDS011;8182;55.648;13.208;2023-07-13T14:33:35;2.87;;;1.17;;
16153;SDS011;8182;55.648;13.208;2023-07-13T14:36:02;2.27;;;1.20;;
16153;SDS011;8182;55.648;13.208;2023-07-13T14:38:32;2.97;;;1.10;;
16153;SDS011;8182;55.648;13.208;2023-07-13T14:41:02;5.13;;;1.60;;
16153;SDS011;8182;55.648;13.208;2023-07-13T14:43:30;2.73;;;1.20;;
16153;SDS011;8182;55.648;13.208;2023-07-13T14:45:57;2.00;;;1.10;;
16153;SDS011;8182;55.648;13.208;2023-07-13T14:48:27;2.33;;;1.03;;
16153;SDS011;8182;55.648;13.208;2023-07-13T14:50:55;2.13;;;0.90;;
16153;SDS011;8182;55.648;13.208;2023-07-13T14:53:24;1.30;;;0.90;;
16153;SDS011;8182;55.648;13.208;2023-07-13T14:55:52;2.83;;;1.03;;
16153;SDS011;8182;55.648;13.208;2023-07-13T14:58:20;1.90;;;1.20;;
16153;SDS011;8182;55.648;13.208;2023-07-13T15:00:47;1.57;;;1.10;;
16153;SDS011;8182;55.648;13.208;2023-07-13T15:03:16;1.70;;;1.00;;
16153;SDS011;8182;55.648;13.208;2023-07-13T15:05:49;1.57;;;1.00;;
16153;SDS011;8182;55.648;13.208;2023-07-13T15:08:18;2.23;;;1.00;;
16153;SDS011;8182;55.648;13.208;2023-07-13T15:10:45;1.50;;;0.97;;
16153;SDS011;8182;55.648;13.208;2023-07-13T15:13:13;2.20;;;1.13;;
16153;SDS011;8182;55.648;13.208;2023-07-13T15:15:42;3.67;;;1.00;;